Baird, Texas
Current Conditions -  °F | °C
As of 1:52 AM on Monday 26 Jan 2015 (Local Time) from KABI Reporting Station
Clear Clear  
Wind Chill: 38°   Ceiling: Unl
Heat Index: 42°   Visibility: 10mi
Dew Point: 29°   Wind: 7mph
Humidity: 60%   Direction: 220°SW
Pressure: 30.24"   Gusts: NA
Location:  32.39°N, 99.39°W
Report Text: KABI 260752Z 22006KT 10SM CLR 06/M02 A3024 RMK AO2 SLP234 T00561017
Loading
Personal Weather Stations






























Interactive Weather Map New forecast layout! Learn more

10-Day Weather Forecast

Advertisements
Track Severe Weather on mobile